sensor_id;sensor_type;location;lat;lon;timestamp;P1;durP1;ratioP1;P2;durP2;ratioP2
68864;SDS011;55898;52.196;4.420;2022-08-27T00:01:47;1.22;;;1.22;;
68864;SDS011;55898;52.196;4.420;2022-08-27T00:04:12;1.48;;;1.48;;
68864;SDS011;55898;52.196;4.420;2022-08-27T00:06:38;1.46;;;1.44;;
68864;SDS011;55898;52.196;4.420;2022-08-27T00:09:04;1.52;;;1.49;;
68864;SDS011;55898;52.196;4.420;2022-08-27T00:11:29;1.49;;;1.47;;
68864;SDS011;55898;52.196;4.420;2022-08-27T00:13:55;1.46;;;1.44;;
68864;SDS011;55898;52.196;4.420;2022-08-27T00:16:21;1.55;;;1.53;;
68864;SDS011;55898;52.196;4.420;2022-08-27T00:18:47;1.41;;;1.41;;
68864;SDS011;55898;52.196;4.420;2022-08-27T00:21:12;1.48;;;1.47;;
68864;SDS011;55898;52.196;4.420;2022-08-27T00:23:38;1.46;;;1.42;;
68864;SDS011;55898;52.196;4.420;2022-08-27T00:26:05;1.39;;;1.34;;
68864;SDS011;55898;52.196;4.420;2022-08-27T00:28:32;1.57;;;1.51;;
68864;SDS011;55898;52.196;4.420;2022-08-27T00:30:59;1.37;;;1.37;;
68864;SDS011;55898;52.196;4.420;2022-08-27T00:33:25;1.28;;;1.28;;
68864;SDS011;55898;52.196;4.420;2022-08-27T00:35:52;1.36;;;1.33;;
68864;SDS011;55898;52.196;4.420;2022-08-27T00:38:18;1.32;;;1.30;;
68864;SDS011;55898;52.196;4.420;2022-08-27T00:40:47;1.34;;;1.28;;
68864;SDS011;55898;52.196;4.420;2022-08-27T00:43:19;1.45;;;1.39;;
68864;SDS011;55898;52.196;4.420;2022-08-27T00:46:09;1.38;;;1.33;;
68864;SDS011;55898;52.196;4.420;2022-08-27T00:48:43;1.43;;;1.39;;
68864;SDS011;55898;52.196;4.420;2022-08-27T00:51:10;1.50;;;1.49;;
68864;SDS011;55898;52.196;4.420;2022-08-27T00:53:36;1.34;;;1.34;;
68864;SDS011;55898;52.196;4.420;2022-08-27T00:56:07;1.37;;;1.37;;
68864;SDS011;55898;52.196;4.420;2022-08-27T00:58:41;1.39;;;1.39;;
68864;SDS011;55898;52.196;4.420;2022-08-27T01:01:10;1.48;;;1.48;;
68864;SDS011;55898;52.196;4.420;2022-08-27T01:03:39;1.49;;;1.49;;
68864;SDS011;55898;52.196;4.420;2022-08-27T01:06:11;1.31;;;1.31;;
68864;SDS011;55898;52.196;4.420;2022-08-27T01:08:41;1.29;;;1.29;;
68864;SDS011;55898;52.196;4.420;2022-08-27T01:11:12;1.27;;;1.27;;
68864;SDS011;55898;52.196;4.420;2022-08-27T01:13:38;1.30;;;1.30;;
68864;SDS011;55898;52.196;4.420;2022-08-27T01:16:04;1.14;;;1.14;;
68864;SDS011;55898;52.196;4.420;2022-08-27T01:18:33;1.16;;;1.14;;
68864;SDS011;55898;52.196;4.420;2022-08-27T01:21:21;1.40;;;1.37;;
68864;SDS011;55898;52.196;4.420;2022-08-27T01:27:00;1.37;;;1.31;;
68864;SDS011;55898;52.196;4.420;2022-08-27T01:29:31;1.24;;;1.16;;
68864;SDS011;55898;52.196;4.420;2022-08-27T01:32:14;1.28;;;1.21;;
68864;SDS011;55898;52.196;4.420;2022-08-27T01:34:42;1.35;;;1.27;;
68864;SDS011;55898;52.196;4.420;2022-08-27T01:37:08;1.18;;;1.09;;
68864;SDS011;55898;52.196;4.420;2022-08-27T01:39:36;1.32;;;1.21;;
68864;SDS011;55898;52.196;4.420;2022-08-27T01:44:56;1.28;;;1.21;;
68864;SDS011;55898;52.196;4.420;2022-08-27T01:47:25;0.97;;;0.95;;
68864;SDS011;55898;52.196;4.420;2022-08-27T01:49:52;1.17;;;1.12;;
68864;SDS011;55898;52.196;4.420;2022-08-27T01:52:20;1.29;;;1.22;;
68864;SDS011;55898;52.196;4.420;2022-08-27T01:54:47;1.25;;;1.17;;
68864;SDS011;55898;52.196;4.420;2022-08-27T01:57:15;1.25;;;1.16;;
68864;SDS011;55898;52.196;4.420;2022-08-27T01:59:42;1.31;;;1.21;;
68864;SDS011;55898;52.196;4.420;2022-08-27T02:02:08;1.40;;;1.30;;
68864;SDS011;55898;52.196;4.420;2022-08-27T02:04:35;1.29;;;1.21;;
68864;SDS011;55898;52.196;4.420;2022-08-27T02:07:02;1.43;;;1.36;;
68864;SDS011;55898;52.196;4.420;2022-08-27T02:09:29;1.13;;;1.08;;
68864;SDS011;55898;52.196;4.420;2022-08-27T02:11:55;1.27;;;1.20;;
68864;SDS011;55898;52.196;4.420;2022-08-27T02:14:22;1.23;;;1.16;;
68864;SDS011;55898;52.196;4.420;2022-08-27T02:16:47;1.18;;;1.11;;
68864;SDS011;55898;52.196;4.420;2022-08-27T02:19:13;1.23;;;1.16;;
68864;SDS011;55898;52.196;4.420;2022-08-27T02:21:39;1.16;;;1.11;;
68864;SDS011;55898;52.196;4.420;2022-08-27T02:24:04;1.35;;;1.27;;
68864;SDS011;55898;52.196;4.420;2022-08-27T02:26:30;1.43;;;1.35;;
68864;SDS011;55898;52.196;4.420;2022-08-27T02:28:55;1.48;;;1.38;;
68864;SDS011;55898;52.196;4.420;2022-08-27T02:31:21;1.88;;;1.80;;
68864;SDS011;55898;52.196;4.420;2022-08-27T02:33:47;1.29;;;1.29;;
68864;SDS011;55898;52.196;4.420;2022-08-27T02:36:13;1.20;;;1.20;;
68864;SDS011;55898;52.196;4.420;2022-08-27T02:38:39;1.23;;;1.19;;
68864;SDS011;55898;52.196;4.420;2022-08-27T02:41:05;1.32;;;1.28;;
68864;SDS011;55898;52.196;4.420;2022-08-27T02:43:31;1.29;;;1.24;;
68864;SDS011;55898;52.196;4.420;2022-08-27T02:45:56;1.38;;;1.33;;
68864;SDS011;55898;52.196;4.420;2022-08-27T02:48:22;1.41;;;1.35;;
68864;SDS011;55898;52.196;4.420;2022-08-27T02:50:48;1.41;;;1.34;;
68864;SDS011;55898;52.196;4.420;2022-08-27T02:53:15;1.34;;;1.24;;
68864;SDS011;55898;52.196;4.420;2022-08-27T02:55:44;1.26;;;1.18;;
68864;SDS011;55898;52.196;4.420;2022-08-27T02:58:09;1.35;;;1.27;;
68864;SDS011;55898;52.196;4.420;2022-08-27T03:00:36;1.44;;;1.35;;
68864;SDS011;55898;52.196;4.420;2022-08-27T03:03:02;2.59;;;2.51;;
68864;SDS011;55898;52.196;4.420;2022-08-27T03:05:28;3.84;;;3.83;;
68864;SDS011;55898;52.196;4.420;2022-08-27T03:07:53;4.36;;;4.36;;
68864;SDS011;55898;52.196;4.420;2022-08-27T03:10:19;3.53;;;3.53;;
68864;SDS011;55898;52.196;4.420;2022-08-27T03:12:45;3.00;;;3.00;;
68864;SDS011;55898;52.196;4.420;2022-08-27T03:15:13;2.52;;;2.52;;
68864;SDS011;55898;52.196;4.420;2022-08-27T03:17:41;2.78;;;2.78;;
68864;SDS011;55898;52.196;4.420;2022-08-27T03:20:25;2.20;;;2.20;;
68864;SDS011;55898;52.196;4.420;2022-08-27T03:22:51;2.27;;;2.27;;
68864;SDS011;55898;52.196;4.420;2022-08-27T03:25:17;2.12;;;2.12;;
68864;SDS011;55898;52.196;4.420;2022-08-27T03:27:43;1.98;;;1.98;;
68864;SDS011;55898;52.196;4.420;2022-08-27T03:30:14;1.84;;;1.84;;
68864;SDS011;55898;52.196;4.420;2022-08-27T03:32:42;1.73;;;1.73;;
68864;SDS011;55898;52.196;4.420;2022-08-27T03:35:08;1.79;;;1.79;;
68864;SDS011;55898;52.196;4.420;2022-08-27T03:37:35;1.71;;;1.71;;
68864;SDS011;55898;52.196;4.420;2022-08-27T03:40:01;1.36;;;1.36;;
68864;SDS011;55898;52.196;4.420;2022-08-27T03:42:29;1.32;;;1.32;;
68864;SDS011;55898;52.196;4.420;2022-08-27T03:44:54;1.43;;;1.43;;
68864;SDS011;55898;52.196;4.420;2022-08-27T03:47:20;1.33;;;1.33;;
68864;SDS011;55898;52.196;4.420;2022-08-27T03:49:48;1.15;;;1.15;;
68864;SDS011;55898;52.196;4.420;2022-08-27T03:52:14;1.25;;;1.25;;
68864;SDS011;55898;52.196;4.420;2022-08-27T03:54:39;1.34;;;1.34;;
68864;SDS011;55898;52.196;4.420;2022-08-27T03:57:05;1.36;;;1.36;;
68864;SDS011;55898;52.196;4.420;2022-08-27T03:59:31;1.22;;;1.21;;
68864;SDS011;55898;52.196;4.420;2022-08-27T04:01:57;1.30;;;1.27;;
68864;SDS011;55898;52.196;4.420;2022-08-27T04:04:24;1.78;;;1.74;;
68864;SDS011;55898;52.196;4.420;2022-08-27T04:06:49;1.65;;;1.60;;
68864;SDS011;55898;52.196;4.420;2022-08-27T04:09:15;1.61;;;1.58;;
68864;SDS011;55898;52.196;4.420;2022-08-27T04:11:41;1.70;;;1.68;;
68864;SDS011;55898;52.196;4.420;2022-08-27T04:14:07;1.78;;;1.78;;
68864;SDS011;55898;52.196;4.420;2022-08-27T04:16:33;1.53;;;1.53;;
68864;SDS011;55898;52.196;4.420;2022-08-27T04:19:01;1.68;;;1.68;;
68864;SDS011;55898;52.196;4.420;2022-08-27T04:21:28;1.60;;;1.60;;
68864;SDS011;55898;52.196;4.420;2022-08-27T04:23:54;1.40;;;1.40;;
68864;SDS011;55898;52.196;4.420;2022-08-27T04:26:21;1.34;;;1.34;;
68864;SDS011;55898;52.196;4.420;2022-08-27T04:28:47;1.56;;;1.55;;
68864;SDS011;55898;52.196;4.420;2022-08-27T04:31:14;1.44;;;1.39;;
68864;SDS011;55898;52.196;4.420;2022-08-27T04:33:42;1.43;;;1.39;;
68864;SDS011;55898;52.196;4.420;2022-08-27T04:36:08;1.70;;;1.65;;
68864;SDS011;55898;52.196;4.420;2022-08-27T04:38:35;1.46;;;1.42;;
68864;SDS011;55898;52.196;4.420;2022-08-27T04:41:06;1.43;;;1.39;;
68864;SDS011;55898;52.196;4.420;2022-08-27T04:43:51;1.37;;;1.36;;
68864;SDS011;55898;52.196;4.420;2022-08-27T04:46:24;1.44;;;1.43;;
68864;SDS011;55898;52.196;4.420;2022-08-27T04:48:54;1.88;;;1.87;;
68864;SDS011;55898;52.196;4.420;2022-08-27T04:51:21;1.86;;;1.83;;
68864;SDS011;55898;52.196;4.420;2022-08-27T04:53:46;1.76;;;1.72;;
68864;SDS011;55898;52.196;4.420;2022-08-27T04:56:13;1.78;;;1.77;;
68864;SDS011;55898;52.196;4.420;2022-08-27T04:58:40;1.78;;;1.78;;
68864;SDS011;55898;52.196;4.420;2022-08-27T05:01:06;1.61;;;1.60;;
68864;SDS011;55898;52.196;4.420;2022-08-27T05:03:33;1.79;;;1.76;;
68864;SDS011;55898;52.196;4.420;2022-08-27T05:06:01;1.67;;;1.65;;
68864;SDS011;55898;52.196;4.420;2022-08-27T05:08:29;1.63;;;1.63;;
68864;SDS011;55898;52.196;4.420;2022-08-27T05:10:55;1.64;;;1.64;;
68864;SDS011;55898;52.196;4.420;2022-08-27T05:13:21;1.45;;;1.45;;
68864;SDS011;55898;52.196;4.420;2022-08-27T05:15:56;1.31;;;1.30;;
68864;SDS011;55898;52.196;4.420;2022-08-27T05:18:26;1.42;;;1.40;;
68864;SDS011;55898;52.196;4.420;2022-08-27T05:20:52;1.48;;;1.47;;
68864;SDS011;55898;52.196;4.420;2022-08-27T05:23:18;1.43;;;1.42;;
68864;SDS011;55898;52.196;4.420;2022-08-27T05:25:45;1.49;;;1.46;;
68864;SDS011;55898;52.196;4.420;2022-08-27T05:28:13;1.58;;;1.55;;
68864;SDS011;55898;52.196;4.420;2022-08-27T05:30:43;1.60;;;1.57;;
68864;SDS011;55898;52.196;4.420;2022-08-27T05:33:12;1.78;;;1.75;;
68864;SDS011;55898;52.196;4.420;2022-08-27T05:35:46;1.83;;;1.80;;
68864;SDS011;55898;52.196;4.420;2022-08-27T05:38:13;1.74;;;1.72;;
68864;SDS011;55898;52.196;4.420;2022-08-27T05:40:40;1.70;;;1.70;;
68864;SDS011;55898;52.196;4.420;2022-08-27T05:43:06;1.70;;;1.69;;
68864;SDS011;55898;52.196;4.420;2022-08-27T05:45:32;1.93;;;1.91;;
68864;SDS011;55898;52.196;4.420;2022-08-27T05:48:04;1.93;;;1.91;;
68864;SDS011;55898;52.196;4.420;2022-08-27T05:50:29;1.76;;;1.74;;
68864;SDS011;55898;52.196;4.420;2022-08-27T05:52:55;1.94;;;1.91;;
68864;SDS011;55898;52.196;4.420;2022-08-27T05:55:21;2.05;;;2.02;;
68864;SDS011;55898;52.196;4.420;2022-08-27T05:57:46;2.06;;;2.04;;
68864;SDS011;55898;52.196;4.420;2022-08-27T06:00:11;2.03;;;2.01;;
68864;SDS011;55898;52.196;4.420;2022-08-27T06:03:15;2.17;;;2.17;;
68864;SDS011;55898;52.196;4.420;2022-08-27T06:05:41;2.15;;;2.15;;
68864;SDS011;55898;52.196;4.420;2022-08-27T06:08:06;2.07;;;2.07;;
68864;SDS011;55898;52.196;4.420;2022-08-27T06:10:32;2.17;;;2.17;;
68864;SDS011;55898;52.196;4.420;2022-08-27T06:12:58;1.95;;;1.95;;
68864;SDS011;55898;52.196;4.420;2022-08-27T06:15:23;1.93;;;1.92;;
68864;SDS011;55898;52.196;4.420;2022-08-27T06:17:49;2.23;;;2.23;;
68864;SDS011;55898;52.196;4.420;2022-08-27T06:20:14;2.09;;;2.09;;
68864;SDS011;55898;52.196;4.420;2022-08-27T06:22:40;2.05;;;2.05;;
68864;SDS011;55898;52.196;4.420;2022-08-27T06:25:06;2.10;;;2.08;;
68864;SDS011;55898;52.196;4.420;2022-08-27T06:27:31;2.47;;;2.45;;
68864;SDS011;55898;52.196;4.420;2022-08-27T06:29:57;2.09;;;2.09;;
68864;SDS011;55898;52.196;4.420;2022-08-27T06:32:22;2.22;;;2.21;;
68864;SDS011;55898;52.196;4.420;2022-08-27T06:34:48;2.16;;;2.14;;
68864;SDS011;55898;52.196;4.420;2022-08-27T06:37:14;2.18;;;2.17;;
68864;SDS011;55898;52.196;4.420;2022-08-27T06:39:39;2.07;;;2.06;;
68864;SDS011;55898;52.196;4.420;2022-08-27T06:42:05;2.09;;;2.08;;
68864;SDS011;55898;52.196;4.420;2022-08-27T06:44:35;2.09;;;2.09;;
68864;SDS011;55898;52.196;4.420;2022-08-27T06:47:01;1.93;;;1.91;;
68864;SDS011;55898;52.196;4.420;2022-08-27T06:49:28;1.86;;;1.85;;
68864;SDS011;55898;52.196;4.420;2022-08-27T06:51:53;1.95;;;1.95;;
68864;SDS011;55898;52.196;4.420;2022-08-27T06:54:19;2.04;;;2.03;;
68864;SDS011;55898;52.196;4.420;2022-08-27T06:56:45;1.96;;;1.96;;
68864;SDS011;55898;52.196;4.420;2022-08-27T06:59:12;2.11;;;2.07;;
68864;SDS011;55898;52.196;4.420;2022-08-27T07:01:40;1.84;;;1.80;;
68864;SDS011;55898;52.196;4.420;2022-08-27T07:04:09;1.99;;;1.96;;
68864;SDS011;55898;52.196;4.420;2022-08-27T07:06:37;2.13;;;2.09;;
68864;SDS011;55898;52.196;4.420;2022-08-27T07:09:04;1.89;;;1.87;;
68864;SDS011;55898;52.196;4.420;2022-08-27T07:11:30;1.92;;;1.91;;
68864;SDS011;55898;52.196;4.420;2022-08-27T07:13:56;1.84;;;1.82;;
68864;SDS011;55898;52.196;4.420;2022-08-27T07:16:23;1.73;;;1.71;;
68864;SDS011;55898;52.196;4.420;2022-08-27T07:18:50;1.58;;;1.55;;
68864;SDS011;55898;52.196;4.420;2022-08-27T07:21:16;1.29;;;1.27;;
68864;SDS011;55898;52.196;4.420;2022-08-27T07:23:44;1.33;;;1.31;;
68864;SDS011;55898;52.196;4.420;2022-08-27T07:26:11;1.37;;;1.35;;
68864;SDS011;55898;52.196;4.420;2022-08-27T07:28:38;1.22;;;1.20;;
68864;SDS011;55898;52.196;4.420;2022-08-27T07:31:05;1.29;;;1.26;;
68864;SDS011;55898;52.196;4.420;2022-08-27T07:33:36;1.17;;;1.15;;
68864;SDS011;55898;52.196;4.420;2022-08-27T07:36:03;1.17;;;1.15;;
68864;SDS011;55898;52.196;4.420;2022-08-27T07:38:29;1.24;;;1.22;;
68864;SDS011;55898;52.196;4.420;2022-08-27T07:40:55;1.26;;;1.25;;
68864;SDS011;55898;52.196;4.420;2022-08-27T07:43:20;1.25;;;1.24;;
68864;SDS011;55898;52.196;4.420;2022-08-27T07:46:04;1.20;;;1.18;;
68864;SDS011;55898;52.196;4.420;2022-08-27T07:48:30;1.31;;;1.28;;
68864;SDS011;55898;52.196;4.420;2022-08-27T07:50:57;1.16;;;1.13;;
68864;SDS011;55898;52.196;4.420;2022-08-27T07:53:24;1.13;;;1.12;;
68864;SDS011;55898;52.196;4.420;2022-08-27T07:55:49;1.29;;;1.27;;
68864;SDS011;55898;52.196;4.420;2022-08-27T07:58:15;1.27;;;1.24;;
68864;SDS011;55898;52.196;4.420;2022-08-27T08:00:41;1.35;;;1.32;;
68864;SDS011;55898;52.196;4.420;2022-08-27T08:03:09;2.07;;;2.04;;
68864;SDS011;55898;52.196;4.420;2022-08-27T08:05:43;1.47;;;1.46;;
68864;SDS011;55898;52.196;4.420;2022-08-27T08:08:09;1.34;;;1.32;;
68864;SDS011;55898;52.196;4.420;2022-08-27T08:10:36;1.58;;;1.53;;
68864;SDS011;55898;52.196;4.420;2022-08-27T08:13:02;1.56;;;1.52;;
68864;SDS011;55898;52.196;4.420;2022-08-27T08:15:28;1.33;;;1.30;;
68864;SDS011;55898;52.196;4.420;2022-08-27T08:17:53;1.40;;;1.38;;
68864;SDS011;55898;52.196;4.420;2022-08-27T08:20:20;1.47;;;1.43;;
68864;SDS011;55898;52.196;4.420;2022-08-27T08:22:45;1.58;;;1.54;;
68864;SDS011;55898;52.196;4.420;2022-08-27T08:25:11;1.50;;;1.45;;
68864;SDS011;55898;52.196;4.420;2022-08-27T08:27:38;1.54;;;1.46;;
68864;SDS011;55898;52.196;4.420;2022-08-27T08:30:05;1.41;;;1.32;;
68864;SDS011;55898;52.196;4.420;2022-08-27T08:32:31;1.59;;;1.50;;
68864;SDS011;55898;52.196;4.420;2022-08-27T08:34:56;1.65;;;1.58;;
68864;SDS011;55898;52.196;4.420;2022-08-27T08:37:24;1.64;;;1.55;;
68864;SDS011;55898;52.196;4.420;2022-08-27T08:39:49;1.29;;;1.21;;
68864;SDS011;55898;52.196;4.420;2022-08-27T08:42:32;1.57;;;1.47;;
68864;SDS011;55898;52.196;4.420;2022-08-27T08:45:05;1.68;;;1.59;;
68864;SDS011;55898;52.196;4.420;2022-08-27T08:55:47;1.37;;;1.31;;
68864;SDS011;55898;52.196;4.420;2022-08-27T09:01:24;1.71;;;1.64;;
68864;SDS011;55898;52.196;4.420;2022-08-27T09:03:52;1.37;;;1.33;;
68864;SDS011;55898;52.196;4.420;2022-08-27T09:08:53;1.05;;;1.03;;
68864;SDS011;55898;52.196;4.420;2022-08-27T09:13:47;1.43;;;1.40;;
68864;SDS011;55898;52.196;4.420;2022-08-27T09:16:25;1.30;;;1.27;;
68864;SDS011;55898;52.196;4.420;2022-08-27T09:18:51;1.35;;;1.32;;
68864;SDS011;55898;52.196;4.420;2022-08-27T09:26:49;1.21;;;1.17;;
68864;SDS011;55898;52.196;4.420;2022-08-27T09:29:15;1.36;;;1.33;;
68864;SDS011;55898;52.196;4.420;2022-08-27T09:31:47;1.32;;;1.29;;
68864;SDS011;55898;52.196;4.420;2022-08-27T09:34:18;1.26;;;1.22;;
68864;SDS011;55898;52.196;4.420;2022-08-27T09:36:56;1.19;;;1.14;;
68864;SDS011;55898;52.196;4.420;2022-08-27T09:40:05;1.55;;;1.50;;
68864;SDS011;55898;52.196;4.420;2022-08-27T09:42:51;1.24;;;1.20;;
68864;SDS011;55898;52.196;4.420;2022-08-27T09:45:23;1.40;;;1.34;;
68864;SDS011;55898;52.196;4.420;2022-08-27T09:47:53;1.42;;;1.34;;
68864;SDS011;55898;52.196;4.420;2022-08-27T09:50:46;1.34;;;1.24;;
68864;SDS011;55898;52.196;4.420;2022-08-27T09:53:17;1.70;;;1.59;;
68864;SDS011;55898;52.196;4.420;2022-08-27T09:55:52;1.37;;;1.30;;
68864;SDS011;55898;52.196;4.420;2022-08-27T09:58:50;1.20;;;1.12;;
68864;SDS011;55898;52.196;4.420;2022-08-27T10:01:18;1.30;;;1.24;;
68864;SDS011;55898;52.196;4.420;2022-08-27T10:03:48;1.05;;;1.02;;
68864;SDS011;55898;52.196;4.420;2022-08-27T10:06:25;1.11;;;1.08;;
68864;SDS011;55898;52.196;4.420;2022-08-27T10:08:51;1.15;;;1.10;;
68864;SDS011;55898;52.196;4.420;2022-08-27T10:11:29;1.19;;;1.12;;
68864;SDS011;55898;52.196;4.420;2022-08-27T10:30:16;1.19;;;1.12;;
68864;SDS011;55898;52.196;4.420;2022-08-27T10:35:43;1.61;;;1.47;;
68864;SDS011;55898;52.196;4.420;2022-08-27T10:41:11;1.12;;;1.07;;
68864;SDS011;55898;52.196;4.420;2022-08-27T10:54:38;1.23;;;1.14;;
68864;SDS011;55898;52.196;4.420;2022-08-27T11:00:01;1.28;;;1.17;;
68864;SDS011;55898;52.196;4.420;2022-08-27T11:02:41;1.13;;;1.04;;
68864;SDS011;55898;52.196;4.420;2022-08-27T11:05:16;1.42;;;1.32;;
68864;SDS011;55898;52.196;4.420;2022-08-27T11:08:38;1.41;;;1.31;;
68864;SDS011;55898;52.196;4.420;2022-08-27T11:10:47;1.45;;;1.34;;
68864;SDS011;55898;52.196;4.420;2022-08-27T11:15:56;1.16;;;1.08;;
68864;SDS011;55898;52.196;4.420;2022-08-27T11:18:39;1.29;;;1.19;;
68864;SDS011;55898;52.196;4.420;2022-08-27T11:21:13;1.40;;;1.31;;
68864;SDS011;55898;52.196;4.420;2022-08-27T11:23:43;1.46;;;1.38;;
68864;SDS011;55898;52.196;4.420;2022-08-27T11:26:12;1.21;;;1.13;;
68864;SDS011;55898;52.196;4.420;2022-08-27T11:28:42;1.37;;;1.27;;
68864;SDS011;55898;52.196;4.420;2022-08-27T11:31:18;1.41;;;1.29;;
68864;SDS011;55898;52.196;4.420;2022-08-27T11:34:18;1.38;;;1.25;;
68864;SDS011;55898;52.196;4.420;2022-08-27T11:39:48;1.18;;;1.07;;
68864;SDS011;55898;52.196;4.420;2022-08-27T11:45:07;1.59;;;1.44;;
68864;SDS011;55898;52.196;4.420;2022-08-27T11:47:49;1.49;;;1.33;;
68864;SDS011;55898;52.196;4.420;2022-08-27T11:50:20;1.44;;;1.28;;
68864;SDS011;55898;52.196;4.420;2022-08-27T11:55:28;1.18;;;1.05;;
68864;SDS011;55898;52.196;4.420;2022-08-27T11:58:05;1.13;;;1.02;;
68864;SDS011;55898;52.196;4.420;2022-08-27T12:00:34;1.19;;;1.08;;
68864;SDS011;55898;52.196;4.420;2022-08-27T12:03:36;1.18;;;1.04;;
68864;SDS011;55898;52.196;4.420;2022-08-27T12:13:44;0.92;;;0.82;;
68864;SDS011;55898;52.196;4.420;2022-08-27T12:16:38;1.11;;;1.00;;
68864;SDS011;55898;52.196;4.420;2022-08-27T12:26:59;1.01;;;0.88;;
68864;SDS011;55898;52.196;4.420;2022-08-27T12:29:34;1.18;;;1.04;;
68864;SDS011;55898;52.196;4.420;2022-08-27T12:34:48;1.45;;;1.31;;
68864;SDS011;55898;52.196;4.420;2022-08-27T12:37:16;0.96;;;0.88;;
68864;SDS011;55898;52.196;4.420;2022-08-27T12:39:49;0.81;;;0.74;;
68864;SDS011;55898;52.196;4.420;2022-08-27T12:42:18;0.82;;;0.74;;
68864;SDS011;55898;52.196;4.420;2022-08-27T12:44:45;0.91;;;0.80;;
68864;SDS011;55898;52.196;4.420;2022-08-27T12:47:12;0.92;;;0.79;;
68864;SDS011;55898;52.196;4.420;2022-08-27T12:49:52;0.96;;;0.82;;
68864;SDS011;55898;52.196;4.420;2022-08-27T13:00:31;0.94;;;0.83;;
68864;SDS011;55898;52.196;4.420;2022-08-27T13:05:36;0.78;;;0.69;;
68864;SDS011;55898;52.196;4.420;2022-08-27T13:08:02;1.11;;;0.97;;
68864;SDS011;55898;52.196;4.420;2022-08-27T13:10:28;0.84;;;0.72;;
68864;SDS011;55898;52.196;4.420;2022-08-27T13:13:06;0.90;;;0.78;;
68864;SDS011;55898;52.196;4.420;2022-08-27T13:15:32;0.96;;;0.83;;
68864;SDS011;55898;52.196;4.420;2022-08-27T13:17:59;1.12;;;0.96;;
68864;SDS011;55898;52.196;4.420;2022-08-27T13:20:26;1.02;;;0.87;;
68864;SDS011;55898;52.196;4.420;2022-08-27T13:22:52;1.18;;;1.00;;
68864;SDS011;55898;52.196;4.420;2022-08-27T13:25:29;1.23;;;1.03;;
68864;SDS011;55898;52.196;4.420;2022-08-27T13:30:32;1.30;;;1.02;;
68864;SDS011;55898;52.196;4.420;2022-08-27T13:33:00;1.16;;;0.91;;
68864;SDS011;55898;52.196;4.420;2022-08-27T13:35:27;1.12;;;0.89;;
68864;SDS011;55898;52.196;4.420;2022-08-27T13:37:56;1.23;;;0.98;;
68864;SDS011;55898;52.196;4.420;2022-08-27T13:40:27;0.97;;;0.77;;
68864;SDS011;55898;52.196;4.420;2022-08-27T13:43:16;1.25;;;1.01;;
68864;SDS011;55898;52.196;4.420;2022-08-27T13:45:46;1.13;;;0.93;;
68864;SDS011;55898;52.196;4.420;2022-08-27T13:48:18;1.26;;;1.04;;
68864;SDS011;55898;52.196;4.420;2022-08-27T13:50:50;1.25;;;1.01;;
68864;SDS011;55898;52.196;4.420;2022-08-27T13:53:18;1.30;;;1.02;;
68864;SDS011;55898;52.196;4.420;2022-08-27T13:56:07;1.33;;;1.04;;
68864;SDS011;55898;52.196;4.420;2022-08-27T13:58:33;1.57;;;1.20;;
68864;SDS011;55898;52.196;4.420;2022-08-27T14:01:10;1.51;;;1.14;;
68864;SDS011;55898;52.196;4.420;2022-08-27T14:03:49;1.55;;;1.17;;
68864;SDS011;55898;52.196;4.420;2022-08-27T14:06:32;1.36;;;1.02;;
68864;SDS011;55898;52.196;4.420;2022-08-27T14:09:15;1.33;;;0.99;;
68864;SDS011;55898;52.196;4.420;2022-08-27T14:11:46;1.36;;;1.01;;
68864;SDS011;55898;52.196;4.420;2022-08-27T14:14:13;1.53;;;1.14;;
68864;SDS011;55898;52.196;4.420;2022-08-27T14:16:41;1.50;;;1.11;;
68864;SDS011;55898;52.196;4.420;2022-08-27T14:19:08;1.74;;;1.30;;
68864;SDS011;55898;52.196;4.420;2022-08-27T14:21:39;2.61;;;2.00;;
68864;SDS011;55898;52.196;4.420;2022-08-27T14:24:07;1.34;;;1.07;;
68864;SDS011;55898;52.196;4.420;2022-08-27T14:26:33;1.66;;;1.33;;
68864;SDS011;55898;52.196;4.420;2022-08-27T14:28:59;1.58;;;1.25;;
68864;SDS011;55898;52.196;4.420;2022-08-27T14:31:25;1.69;;;1.29;;
68864;SDS011;55898;52.196;4.420;2022-08-27T14:33:52;1.66;;;1.26;;
68864;SDS011;55898;52.196;4.420;2022-08-27T14:36:21;1.73;;;1.30;;
68864;SDS011;55898;52.196;4.420;2022-08-27T14:38:49;2.03;;;1.50;;
68864;SDS011;55898;52.196;4.420;2022-08-27T14:41:16;1.88;;;1.36;;
68864;SDS011;55898;52.196;4.420;2022-08-27T14:43:43;1.92;;;1.41;;
68864;SDS011;55898;52.196;4.420;2022-08-27T14:46:11;1.90;;;1.37;;
68864;SDS011;55898;52.196;4.420;2022-08-27T14:48:45;2.05;;;1.51;;
68864;SDS011;55898;52.196;4.420;2022-08-27T14:51:12;1.95;;;1.44;;
68864;SDS011;55898;52.196;4.420;2022-08-27T14:53:42;1.72;;;1.28;;
68864;SDS011;55898;52.196;4.420;2022-08-27T14:56:08;1.58;;;1.23;;
68864;SDS011;55898;52.196;4.420;2022-08-27T14:58:34;1.37;;;1.08;;
68864;SDS011;55898;52.196;4.420;2022-08-27T15:01:00;1.72;;;1.35;;
68864;SDS011;55898;52.196;4.420;2022-08-27T15:03:26;1.68;;;1.34;;
68864;SDS011;55898;52.196;4.420;2022-08-27T15:05:52;1.87;;;1.49;;
68864;SDS011;55898;52.196;4.420;2022-08-27T15:08:23;1.81;;;1.44;;
68864;SDS011;55898;52.196;4.420;2022-08-27T15:10:49;1.79;;;1.43;;
68864;SDS011;55898;52.196;4.420;2022-08-27T15:13:15;1.51;;;1.23;;
68864;SDS011;55898;52.196;4.420;2022-08-27T15:15:41;1.87;;;1.52;;
68864;SDS011;55898;52.196;4.420;2022-08-27T15:18:07;1.77;;;1.41;;
68864;SDS011;55898;52.196;4.420;2022-08-27T15:20:33;1.90;;;1.52;;
68864;SDS011;55898;52.196;4.420;2022-08-27T15:23:00;1.82;;;1.46;;
68864;SDS011;55898;52.196;4.420;2022-08-27T15:25:26;1.49;;;1.22;;
68864;SDS011;55898;52.196;4.420;2022-08-27T15:27:53;1.45;;;1.22;;
68864;SDS011;55898;52.196;4.420;2022-08-27T15:30:22;1.71;;;1.46;;
68864;SDS011;55898;52.196;4.420;2022-08-27T15:32:50;1.56;;;1.34;;
68864;SDS011;55898;52.196;4.420;2022-08-27T15:35:17;1.63;;;1.42;;
68864;SDS011;55898;52.196;4.420;2022-08-27T15:37:45;1.86;;;1.62;;
68864;SDS011;55898;52.196;4.420;2022-08-27T15:40:11;1.47;;;1.29;;
68864;SDS011;55898;52.196;4.420;2022-08-27T15:42:39;1.54;;;1.35;;
68864;SDS011;55898;52.196;4.420;2022-08-27T15:45:05;1.82;;;1.58;;
68864;SDS011;55898;52.196;4.420;2022-08-27T15:47:31;1.41;;;1.23;;
68864;SDS011;55898;52.196;4.420;2022-08-27T15:49:57;1.80;;;1.53;;
68864;SDS011;55898;52.196;4.420;2022-08-27T15:52:23;1.77;;;1.51;;
68864;SDS011;55898;52.196;4.420;2022-08-27T15:54:49;2.58;;;2.17;;
68864;SDS011;55898;52.196;4.420;2022-08-27T15:57:16;3.39;;;2.67;;
68864;SDS011;55898;52.196;4.420;2022-08-27T15:59:43;2.12;;;1.69;;
68864;SDS011;55898;52.196;4.420;2022-08-27T16:02:11;2.11;;;1.69;;
68864;SDS011;55898;52.196;4.420;2022-08-27T16:04:41;1.70;;;1.38;;
68864;SDS011;55898;52.196;4.420;2022-08-27T16:07:08;1.93;;;1.60;;
68864;SDS011;55898;52.196;4.420;2022-08-27T16:09:34;1.48;;;1.23;;
68864;SDS011;55898;52.196;4.420;2022-08-27T16:11:59;1.58;;;1.34;;
68864;SDS011;55898;52.196;4.420;2022-08-27T16:14:25;1.77;;;1.53;;
68864;SDS011;55898;52.196;4.420;2022-08-27T16:16:51;1.56;;;1.36;;
68864;SDS011;55898;52.196;4.420;2022-08-27T16:19:16;1.67;;;1.46;;
68864;SDS011;55898;52.196;4.420;2022-08-27T16:21:44;1.35;;;1.18;;
68864;SDS011;55898;52.196;4.420;2022-08-27T16:24:11;1.38;;;1.24;;
68864;SDS011;55898;52.196;4.420;2022-08-27T16:26:37;1.51;;;1.36;;
68864;SDS011;55898;52.196;4.420;2022-08-27T16:29:03;1.72;;;1.52;;
68864;SDS011;55898;52.196;4.420;2022-08-27T16:31:30;1.23;;;1.07;;
68864;SDS011;55898;52.196;4.420;2022-08-27T16:33:57;1.51;;;1.31;;
68864;SDS011;55898;52.196;4.420;2022-08-27T16:36:23;1.30;;;1.13;;
68864;SDS011;55898;52.196;4.420;2022-08-27T16:38:49;1.43;;;1.23;;
68864;SDS011;55898;52.196;4.420;2022-08-27T16:41:14;2.92;;;2.58;;
68864;SDS011;55898;52.196;4.420;2022-08-27T16:43:41;2.44;;;2.41;;
68864;SDS011;55898;52.196;4.420;2022-08-27T16:46:07;1.20;;;1.18;;